Time;durP1;ratioP1;P1;durP2;ratioP2;P2;SDS_P1;SDS_P2;PMS_P1;PMS_P2;Temp;Humidity;BMP_temperature;BMP_pressure;BME280_temperature;BME280_humidity;BME280_pressure;Samples;Min_cycle;Max_cycle;Signal;HPM_P1;HPM_P2
2021/04/18 16:54:25;;;;;;;4.53;2.23;;;14.90;91.20;;;;;;6089209;23;20302;-70
2021/04/18 16:56:51;;;;;;;3.60;1.90;;;14.80;91.40;;;;;;6096478;23;20207;-70
2021/04/18 16:59:18;;;;;;;5.87;2.50;;;14.90;91.70;;;;;;6096991;23;20189;-71
2021/04/18 17:01:44;;;;;;;6.00;2.70;;;14.80;91.40;;;;;;6096624;23;20183;-70
2021/04/18 17:04:10;;;;;;;3.50;2.13;;;14.90;92.30;;;;;;6096668;23;20191;-70
2021/04/18 17:06:37;;;;;;;5.80;2.17;;;14.80;92.30;;;;;;6097109;23;20179;-69
2021/04/18 17:09:03;;;;;;;3.90;2.00;;;14.80;92.30;;;;;;6096832;23;20180;-69
2021/04/18 17:11:32;;;;;;;3.40;2.03;;;14.80;92.40;;;;;;6097303;23;20179;-69
2021/04/18 17:13:59;;;;;;;4.57;2.20;;;14.80;92.10;;;;;;6097286;23;20180;-70
2021/04/18 17:16:25;;;;;;;3.77;1.90;;;14.70;92.40;;;;;;6097518;23;20605;-73
2021/04/18 17:18:52;;;;;;;9.57;3.30;;;14.70;92.70;;;;;;6097250;23;20235;-68
2021/04/18 17:21:18;;;;;;;4.00;2.10;;;14.60;92.60;;;;;;6096996;23;20214;-71
2021/04/18 17:23:44;;;;;;;4.60;2.30;;;14.60;92.60;;;;;;6096512;23;20180;-72
2021/04/18 17:26:11;;;;;;;4.60;1.83;;;14.60;92.70;;;;;;6097177;23;20250;-81
2021/04/18 17:28:38;;;;;;;4.47;2.10;;;14.70;92.70;;;;;;6097441;23;20190;-81
2021/04/18 17:31:04;;;;;;;4.43;1.83;;;14.70;92.70;;;;;;6093496;23;20814;-77
2021/04/18 17:33:30;;;;;;;6.03;2.57;;;14.70;92.80;;;;;;6097024;23;20274;-67
2021/04/18 17:35:57;;;;;;;5.53;1.93;;;14.60;92.90;;;;;;6097180;23;20180;-67
2021/04/18 17:38:23;;;;;;;4.60;1.83;;;14.60;92.80;;;;;;6097359;23;20259;-67
2021/04/18 17:40:49;;;;;;;5.87;2.60;;;14.60;93.00;;;;;;6097240;23;20527;-68
2021/04/18 17:43:18;;;;;;;5.50;1.90;;;14.50;93.00;;;;;;6096750;23;20183;-69
2021/04/18 17:45:45;;;;;;;3.93;2.37;;;14.40;93.20;;;;;;6097509;23;20202;-67
2021/04/18 17:48:11;;;;;;;2.80;1.80;;;14.30;93.20;;;;;;6097443;23;20187;-67
2021/04/18 17:50:38;;;;;;;4.33;2.17;;;14.30;93.40;;;;;;6097365;23;20199;-67
2021/04/18 17:53:05;;;;;;;3.90;2.33;;;14.10;93.50;;;;;;6097314;23;20570;-66
2021/04/18 17:55:31;;;;;;;8.30;2.27;;;14.10;93.80;;;;;;6096998;23;20191;-69
2021/04/18 17:57:58;;;;;;;4.90;2.27;;;14.10;93.80;;;;;;6097585;23;20278;-67
2021/04/18 18:00:25;;;;;;;7.83;2.10;;;14.00;94.20;;;;;;6097431;23;20260;-67
2021/04/18 18:02:52;;;;;;;5.70;2.30;;;14.00;94.40;;;;;;6096874;23;20183;-66
2021/04/18 18:05:18;;;;;;;6.50;2.17;;;13.90;94.40;;;;;;6096561;23;20661;-68
2021/04/18 18:07:45;;;;;;;4.00;2.00;;;13.90;94.20;;;;;;6097021;23;20186;-67
2021/04/18 18:10:13;;;;;;;7.33;2.20;;;13.90;94.50;;;;;;6096895;23;20235;-68
2021/04/18 18:12:40;;;;;;;5.13;2.10;;;13.80;94.50;;;;;;6097089;23;20190;-71
2021/04/18 18:15:09;;;;;;;4.97;2.40;;;13.80;94.50;;;;;;6096886;23;20184;-70
2021/04/18 18:17:35;;;;;;;5.43;2.10;;;13.50;94.50;;;;;;6096984;23;20211;-70
2021/04/18 18:20:04;;;;;;;4.00;2.17;;;13.50;94.70;;;;;;6097250;23;20203;-69
2021/04/18 18:22:30;;;;;;;7.10;3.73;;;13.50;95.00;;;;;;6096341;23;20183;-69
2021/04/18 18:24:58;;;;;;;5.23;2.40;;;13.40;95.00;;;;;;6096725;23;20184;-72
2021/04/18 18:27:24;;;;;;;6.67;2.20;;;13.40;94.90;;;;;;6097241;23;20180;-68
2021/04/18 18:29:51;;;;;;;5.37;2.20;;;13.30;95.00;;;;;;6094828;23;20232;-69
2021/04/18 18:32:17;;;;;;;5.23;2.30;;;13.30;95.50;;;;;;6095986;23;20242;-68
2021/04/18 18:34:43;;;;;;;4.47;2.20;;;13.30;95.20;;;;;;6096673;23;20191;-70
2021/04/18 18:37:10;;;;;;;5.37;2.20;;;13.20;95.40;;;;;;6096371;23;20204;-69
2021/04/18 18:39:36;;;;;;;5.37;2.33;;;13.10;95.50;;;;;;6095901;23;20207;-66
2021/04/18 18:42:03;;;;;;;4.80;2.20;;;13.10;95.70;;;;;;6096692;23;20188;-69
2021/04/18 18:44:29;;;;;;;4.40;2.27;;;12.90;95.80;;;;;;6096238;23;20186;-68
2021/04/18 18:46:56;;;;;;;5.47;2.20;;;12.80;96.00;;;;;;6096148;23;20246;-69
2021/04/18 18:49:22;;;;;;;3.73;2.30;;;12.90;96.10;;;;;;6096173;23;20202;-70
2021/04/18 18:51:48;;;;;;;5.37;2.47;;;12.80;96.20;;;;;;6096804;23;20188;-69
2021/04/18 18:54:15;;;;;;;6.60;2.20;;;12.80;96.40;;;;;;6091064;23;20194;-67
2021/04/18 18:56:42;;;;;;;4.97;2.37;;;12.80;96.40;;;;;;6095244;23;20206;-67
2021/04/18 18:59:09;;;;;;;4.37;2.40;;;12.80;96.60;;;;;;6094842;23;20642;-68
2021/04/18 19:01:35;;;;;;;3.57;2.20;;;12.80;96.80;;;;;;6096351;23;20218;-68
2021/04/18 19:04:03;;;;;;;4.03;1.97;;;12.60;97.10;;;;;;6096201;23;20184;-68
2021/04/18 19:06:30;;;;;;;5.33;2.50;;;12.50;97.40;;;;;;6096610;23;20179;-68
2021/04/18 19:08:56;;;;;;;9.63;2.90;;;12.40;97.80;;;;;;6096774;23;20214;-68
2021/04/18 19:11:23;;;;;;;5.20;2.67;;;12.40;98.00;;;;;;6097204;23;20203;-70
2021/04/18 19:13:50;;;;;;;8.23;2.80;;;12.30;98.20;;;;;;6096572;23;20190;-70
2021/04/18 19:16:17;;;;;;;6.97;3.03;;;12.20;98.50;;;;;;6096348;23;20187;-68
2021/04/18 19:18:43;;;;;;;4.97;2.93;;;12.20;98.60;;;;;;6096296;23;20674;-67
2021/04/18 19:21:10;;;;;;;4.07;2.60;;;12.10;99.00;;;;;;6095922;23;20520;-68
2021/04/18 19:23:36;;;;;;;10.37;3.30;;;12.00;99.20;;;;;;6096018;23;20186;-68
2021/04/18 19:26:03;;;;;;;7.27;3.00;;;11.90;99.30;;;;;;6096440;23;20179;-67
2021/04/18 19:28:30;;;;;;;5.70;3.10;;;11.90;99.50;;;;;;6096354;23;20183;-67
2021/04/18 19:30:57;;;;;;;6.70;2.50;;;11.90;99.70;;;;;;6096652;23;20574;-69
2021/04/18 19:33:23;;;;;;;8.07;3.10;;;11.80;99.90;;;;;;6096981;23;20634;-68
2021/04/18 19:35:50;;;;;;;4.70;2.80;;;11.70;99.90;;;;;;6096795;23;20179;-68
2021/04/18 19:38:16;;;;;;;8.00;3.53;;;11.70;99.90;;;;;;6096952;23;20496;-69
2021/04/18 19:40:44;;;;;;;7.37;2.50;;;11.70;99.90;;;;;;6097028;23;20204;-70
2021/04/18 19:43:11;;;;;;;4.67;2.83;;;11.60;99.90;;;;;;6097698;23;20266;-69
2021/04/18 19:45:38;;;;;;;5.07;3.00;;;11.50;99.90;;;;;;6097289;23;20183;-66
2021/04/18 19:48:06;;;;;;;8.70;3.40;;;11.50;99.90;;;;;;6096381;23;20528;-66
2021/04/18 19:50:33;;;;;;;6.97;3.07;;;11.40;99.90;;;;;;6096386;23;20204;-67
2021/04/18 19:53:00;;;;;;;6.67;3.47;;;11.50;99.90;;;;;;6095769;23;20340;-66
2021/04/18 19:55:26;;;;;;;6.03;3.20;;;11.50;99.90;;;;;;6096254;23;20179;-65
2021/04/18 19:57:54;;;;;;;6.37;3.17;;;11.40;99.90;;;;;;6096116;23;20227;-67
2021/04/18 20:00:22;;;;;;;8.03;3.60;;;11.30;99.90;;;;;;6095818;23;20211;-66
2021/04/18 20:02:49;;;;;;;6.77;3.70;;;11.20;99.90;;;;;;6096270;23;20190;-66
2021/04/18 20:05:16;;;;;;;5.40;3.13;;;11.10;99.90;;;;;;6095991;23;20226;-66
2021/04/18 20:07:42;;;;;;;5.67;3.23;;;11.00;99.90;;;;;;6095627;23;20195;-66
2021/04/18 20:10:11;;;;;;;8.63;3.50;;;10.90;99.90;;;;;;6095083;23;20527;-66
2021/04/18 20:12:37;;;;;;;9.07;3.77;;;10.90;99.90;;;;;;6096354;23;20643;-67
2021/04/18 20:15:05;;;;;;;5.97;3.23;;;10.80;99.90;;;;;;6095573;23;20183;-66
2021/04/18 20:17:31;;;;;;;4.57;3.17;;;10.70;99.90;;;;;;6095694;23;20216;-66
2021/04/18 20:19:58;;;;;;;5.33;2.97;;;10.70;99.90;;;;;;6095841;23;20204;-65
2021/04/18 20:22:25;;;;;;;5.90;3.27;;;10.60;99.90;;;;;;6096008;23;20180;-66
2021/04/18 20:24:51;;;;;;;8.30;3.50;;;10.40;99.90;;;;;;6096128;23;20279;-68
2021/04/18 20:27:19;;;;;;;8.17;3.10;;;10.40;99.90;;;;;;6096304;23;20296;-69
2021/04/18 20:29:45;;;;;;;9.30;4.00;;;10.50;99.90;;;;;;6095845;23;20670;-66
2021/04/18 20:32:11;;;;;;;5.20;3.80;;;10.50;99.90;;;;;;6096619;23;20186;-66
2021/04/18 20:34:37;;;;;;;9.77;4.37;;;10.60;99.90;;;;;;6096082;23;20186;-66
2021/04/18 20:37:04;;;;;;;11.90;4.00;;;10.50;99.90;;;;;;6096319;23;20519;-66
2021/04/18 20:39:30;;;;;;;8.40;3.63;;;10.50;99.90;;;;;;6095920;23;20199;-66
2021/04/18 20:41:57;;;;;;;9.23;3.70;;;10.40;99.90;;;;;;6096097;23;20551;-65
2021/04/18 20:44:23;;;;;;;7.23;3.87;;;10.30;99.90;;;;;;6095954;23;20242;-67
2021/04/18 20:46:49;;;;;;;10.23;3.47;;;10.20;99.90;;;;;;6096405;23;20517;-67
2021/04/18 20:49:15;;;;;;;8.03;4.37;;;10.20;99.90;;;;;;6096292;23;20650;-68
2021/04/18 20:51:42;;;;;;;10.63;4.43;;;10.30;99.90;;;;;;6096199;23;20209;-67
2021/04/18 20:54:09;;;;;;;10.87;4.30;;;10.20;99.90;;;;;;6095731;23;20270;-67
2021/04/18 20:56:35;;;;;;;8.13;4.33;;;10.10;99.90;;;;;;6096163;23;20186;-69
2021/04/18 20:59:02;;;;;;;8.43;4.30;;;10.10;99.90;;;;;;6095649;23;20211;-67
